sensor_id;sensor_type;location;lat;lon;timestamp;temperature;humidity
68358;DHT22;55276;53.260;50.222;2022-12-13T00:01:51;-3268.10;60.60
68358;DHT22;55276;53.260;50.222;2022-12-13T00:04:19;-3268.10;60.50
68358;DHT22;55276;53.260;50.222;2022-12-13T00:06:46;-3268.10;60.50
68358;DHT22;55276;53.260;50.222;2022-12-13T00:09:14;-3268.20;60.50
68358;DHT22;55276;53.260;50.222;2022-12-13T00:11:40;-3268.10;60.50
68358;DHT22;55276;53.260;50.222;2022-12-13T00:14:06;-3268.20;60.50
68358;DHT22;55276;53.260;50.222;2022-12-13T00:16:33;-3268.20;60.20
68358;DHT22;55276;53.260;50.222;2022-12-13T00:18:59;-3268.20;60.20
68358;DHT22;55276;53.260;50.222;2022-12-13T00:21:31;-3268.20;60.40
68358;DHT22;55276;53.260;50.222;2022-12-13T00:23:58;-3268.20;60.40
68358;DHT22;55276;53.260;50.222;2022-12-13T00:26:27;-3268.20;60.50
68358;DHT22;55276;53.260;50.222;2022-12-13T00:28:54;-3268.20;60.40
68358;DHT22;55276;53.260;50.222;2022-12-13T00:31:39;-3268.20;60.40
68358;DHT22;55276;53.260;50.222;2022-12-13T00:34:05;-3268.20;60.40
68358;DHT22;55276;53.260;50.222;2022-12-13T00:36:32;-3268.20;60.40
68358;DHT22;55276;53.260;50.222;2022-12-13T00:39:00;-3268.20;60.40
68358;DHT22;55276;53.260;50.222;2022-12-13T00:41:33;-3268.20;60.40
68358;DHT22;55276;53.260;50.222;2022-12-13T00:44:00;-3268.20;60.40
68358;DHT22;55276;53.260;50.222;2022-12-13T00:46:27;-3268.20;60.40
68358;DHT22;55276;53.260;50.222;2022-12-13T00:48:56;-3268.30;60.30
68358;DHT22;55276;53.260;50.222;2022-12-13T00:51:23;-3268.20;60.30
68358;DHT22;55276;53.260;50.222;2022-12-13T00:53:50;-3268.30;60.40
68358;DHT22;55276;53.260;50.222;2022-12-13T00:56:19;-3268.30;60.30
68358;DHT22;55276;53.260;50.222;2022-12-13T00:58:47;-3268.40;60.30
68358;DHT22;55276;53.260;50.222;2022-12-13T01:01:14;-3268.40;60.30
68358;DHT22;55276;53.260;50.222;2022-12-13T01:03:41;-3268.40;60.20
68358;DHT22;55276;53.260;50.222;2022-12-13T01:08:54;-3268.30;60.00
68358;DHT22;55276;53.260;50.222;2022-12-13T01:11:20;-3268.30;60.10
68358;DHT22;55276;53.260;50.222;2022-12-13T01:13:46;-3268.30;60.20
68358;DHT22;55276;53.260;50.222;2022-12-13T01:16:12;-3268.30;60.30
68358;DHT22;55276;53.260;50.222;2022-12-13T01:18:39;-3268.30;60.30
68358;DHT22;55276;53.260;50.222;2022-12-13T01:21:11;-3268.30;60.50
68358;DHT22;55276;53.260;50.222;2022-12-13T01:23:37;-3268.40;60.50
68358;DHT22;55276;53.260;50.222;2022-12-13T01:26:09;-3268.40;60.40
68358;DHT22;55276;53.260;50.222;2022-12-13T01:28:36;-3268.40;60.50
68358;DHT22;55276;53.260;50.222;2022-12-13T01:31:05;-3268.30;60.60
68358;DHT22;55276;53.260;50.222;2022-12-13T01:33:32;-3268.30;60.70
68358;DHT22;55276;53.260;50.222;2022-12-13T01:36:04;-3268.20;60.80
68358;DHT22;55276;53.260;50.222;2022-12-13T01:38:32;-3268.20;61.00
68358;DHT22;55276;53.260;50.222;2022-12-13T01:41:04;-3268.20;61.00
68358;DHT22;55276;53.260;50.222;2022-12-13T01:46:03;-3268.10;61.20
68358;DHT22;55276;53.260;50.222;2022-12-13T01:48:34;-3268.00;61.30
68358;DHT22;55276;53.260;50.222;2022-12-13T01:51:02;-3268.10;61.30
68358;DHT22;55276;53.260;50.222;2022-12-13T01:53:33;-3268.00;61.30
68358;DHT22;55276;53.260;50.222;2022-12-13T01:56:13;-3268.00;61.30
68358;DHT22;55276;53.260;50.222;2022-12-13T01:58:41;-3268.00;61.40
68358;DHT22;55276;53.260;50.222;2022-12-13T02:01:07;-3268.00;61.40
68358;DHT22;55276;53.260;50.222;2022-12-13T02:03:34;-3268.00;61.40
68358;DHT22;55276;53.260;50.222;2022-12-13T02:06:08;-3268.00;61.50
68358;DHT22;55276;53.260;50.222;2022-12-13T02:08:36;-3268.00;61.50
68358;DHT22;55276;53.260;50.222;2022-12-13T02:11:05;-3268.00;61.50
68358;DHT22;55276;53.260;50.222;2022-12-13T02:13:32;-3268.00;61.50
68358;DHT22;55276;53.260;50.222;2022-12-13T02:16:07;-3268.00;61.60
68358;DHT22;55276;53.260;50.222;2022-12-13T02:24:21;-3268.10;61.40
68358;DHT22;55276;53.260;50.222;2022-12-13T02:27:09;-3268.10;61.50
68358;DHT22;55276;53.260;50.222;2022-12-13T02:30:15;-3268.10;61.50
68358;DHT22;55276;53.260;50.222;2022-12-13T02:41:45;-3268.00;61.60
68358;DHT22;55276;53.260;50.222;2022-12-13T02:44:33;-3268.00;61.70
68358;DHT22;55276;53.260;50.222;2022-12-13T02:47:07;-3268.00;61.60
68358;DHT22;55276;53.260;50.222;2022-12-13T02:49:38;-3268.00;61.80
68358;DHT22;55276;53.260;50.222;2022-12-13T02:52:07;-3267.90;61.90
68358;DHT22;55276;53.260;50.222;2022-12-13T02:54:34;-3267.90;62.00
68358;DHT22;55276;53.260;50.222;2022-12-13T02:57:00;-3267.90;62.10
68358;DHT22;55276;53.260;50.222;2022-12-13T02:59:33;-3267.90;62.20
68358;DHT22;55276;53.260;50.222;2022-12-13T03:05:08;-3267.90;62.30
68358;DHT22;55276;53.260;50.222;2022-12-13T03:10:34;-3267.90;62.30
68358;DHT22;55276;53.260;50.222;2022-12-13T03:13:06;-3267.90;62.30
68358;DHT22;55276;53.260;50.222;2022-12-13T03:15:59;-3267.90;62.30
68358;DHT22;55276;53.260;50.222;2022-12-13T03:18:26;-3267.90;62.40
68358;DHT22;55276;53.260;50.222;2022-12-13T03:20:58;-3267.90;62.40
68358;DHT22;55276;53.260;50.222;2022-12-13T03:23:25;-3268.00;62.50
68358;DHT22;55276;53.260;50.222;2022-12-13T03:25:55;-3268.00;62.50
68358;DHT22;55276;53.260;50.222;2022-12-13T03:28:25;-3268.00;62.50
68358;DHT22;55276;53.260;50.222;2022-12-13T03:30:51;-3268.00;62.50
68358;DHT22;55276;53.260;50.222;2022-12-13T03:33:17;-3268.00;62.40
68358;DHT22;55276;53.260;50.222;2022-12-13T03:35:44;-3268.00;62.50
68358;DHT22;55276;53.260;50.222;2022-12-13T03:38:15;-3267.90;62.50
68358;DHT22;55276;53.260;50.222;2022-12-13T03:40:43;-3267.90;62.60
68358;DHT22;55276;53.260;50.222;2022-12-13T03:43:09;-3267.90;62.60
68358;DHT22;55276;53.260;50.222;2022-12-13T03:45:36;-3267.90;62.70
68358;DHT22;55276;53.260;50.222;2022-12-13T03:48:02;-3267.80;62.80
68358;DHT22;55276;53.260;50.222;2022-12-13T03:50:28;-3267.80;62.90
68358;DHT22;55276;53.260;50.222;2022-12-13T03:52:59;-3267.80;63.10
68358;DHT22;55276;53.260;50.222;2022-12-13T03:55:26;-3267.70;63.10
68358;DHT22;55276;53.260;50.222;2022-12-13T03:57:53;-3267.80;63.30
68358;DHT22;55276;53.260;50.222;2022-12-13T04:00:19;-3267.70;63.20
68358;DHT22;55276;53.260;50.222;2022-12-13T04:02:48;-3267.70;63.20
68358;DHT22;55276;53.260;50.222;2022-12-13T04:05:14;-3267.70;63.20
68358;DHT22;55276;53.260;50.222;2022-12-13T04:07:41;-3267.70;63.30
68358;DHT22;55276;53.260;50.222;2022-12-13T04:10:07;-3267.70;63.40
68358;DHT22;55276;53.260;50.222;2022-12-13T04:12:33;-3267.60;63.50
68358;DHT22;55276;53.260;50.222;2022-12-13T04:15:18;-3267.60;63.60
68358;DHT22;55276;53.260;50.222;2022-12-13T04:17:45;-3267.60;63.60
68358;DHT22;55276;53.260;50.222;2022-12-13T04:20:11;-3267.50;63.70
68358;DHT22;55276;53.260;50.222;2022-12-13T04:22:38;-3267.50;63.80
68358;DHT22;55276;53.260;50.222;2022-12-13T04:25:04;-3267.50;63.90
68358;DHT22;55276;53.260;50.222;2022-12-13T04:27:31;-3267.40;64.00
68358;DHT22;55276;53.260;50.222;2022-12-13T04:29:58;-3267.40;64.10
68358;DHT22;55276;53.260;50.222;2022-12-13T04:32:24;-3267.40;64.10
68358;DHT22;55276;53.260;50.222;2022-12-13T04:37:55;-3267.50;64.00
68358;DHT22;55276;53.260;50.222;2022-12-13T04:40:22;-3267.60;64.00
68358;DHT22;55276;53.260;50.222;2022-12-13T04:42:48;-3267.60;63.90
68358;DHT22;55276;53.260;50.222;2022-12-13T04:45:16;-3267.60;63.90
68358;DHT22;55276;53.260;50.222;2022-12-13T04:47:43;-3267.70;64.00
68358;DHT22;55276;53.260;50.222;2022-12-13T04:50:10;-3267.70;63.90
68358;DHT22;55276;53.260;50.222;2022-12-13T04:52:36;-3267.70;63.90
68358;DHT22;55276;53.260;50.222;2022-12-13T04:55:05;-3267.80;63.80
68358;DHT22;55276;53.260;50.222;2022-12-13T04:57:31;-3267.90;63.70
68358;DHT22;55276;53.260;50.222;2022-12-13T04:59:57;-3267.90;63.70
68358;DHT22;55276;53.260;50.222;2022-12-13T05:02:24;-3267.90;63.60
68358;DHT22;55276;53.260;50.222;2022-12-13T05:04:52;-3267.90;63.60
68358;DHT22;55276;53.260;50.222;2022-12-13T05:07:22;-3267.90;63.60
68358;DHT22;55276;53.260;50.222;2022-12-13T05:09:48;-3268.00;63.50
68358;DHT22;55276;53.260;50.222;2022-12-13T05:12:14;-3267.90;63.60
68358;DHT22;55276;53.260;50.222;2022-12-13T05:14:40;-3268.00;63.60
68358;DHT22;55276;53.260;50.222;2022-12-13T05:17:06;-3268.00;63.60
68358;DHT22;55276;53.260;50.222;2022-12-13T05:19:32;-3267.90;63.60
68358;DHT22;55276;53.260;50.222;2022-12-13T05:21:59;-3267.90;63.50
68358;DHT22;55276;53.260;50.222;2022-12-13T05:24:25;-3267.90;63.60
68358;DHT22;55276;53.260;50.222;2022-12-13T05:26:51;-3267.80;63.50
68358;DHT22;55276;53.260;50.222;2022-12-13T05:29:17;-3267.80;63.60
68358;DHT22;55276;53.260;50.222;2022-12-13T05:31:44;-3267.90;63.50
68358;DHT22;55276;53.260;50.222;2022-12-13T05:34:10;-3267.80;63.40
68358;DHT22;55276;53.260;50.222;2022-12-13T05:36:36;-3267.70;63.30
68358;DHT22;55276;53.260;50.222;2022-12-13T05:39:33;-3267.70;63.50
68358;DHT22;55276;53.260;50.222;2022-12-13T05:41:59;-3267.60;63.60
68358;DHT22;55276;53.260;50.222;2022-12-13T05:44:25;-3267.50;63.70
68358;DHT22;55276;53.260;50.222;2022-12-13T05:46:53;-3267.60;63.90
68358;DHT22;55276;53.260;50.222;2022-12-13T05:49:19;-3267.80;63.80
68358;DHT22;55276;53.260;50.222;2022-12-13T05:51:45;-3267.80;63.60
68358;DHT22;55276;53.260;50.222;2022-12-13T05:54:11;-3267.90;63.50
68358;DHT22;55276;53.260;50.222;2022-12-13T05:56:38;-3268.00;63.40
68358;DHT22;55276;53.260;50.222;2022-12-13T05:59:07;-3268.00;63.30
68358;DHT22;55276;53.260;50.222;2022-12-13T06:01:36;-3268.10;63.00
68358;DHT22;55276;53.260;50.222;2022-12-13T06:04:02;-3268.10;63.00
68358;DHT22;55276;53.260;50.222;2022-12-13T06:06:28;-3268.10;62.90
68358;DHT22;55276;53.260;50.222;2022-12-13T06:08:54;-3268.20;62.90
68358;DHT22;55276;53.260;50.222;2022-12-13T06:11:21;-3268.20;62.80
68358;DHT22;55276;53.260;50.222;2022-12-13T06:13:50;-3268.30;62.70
68358;DHT22;55276;53.260;50.222;2022-12-13T06:16:17;-3268.40;62.50
68358;DHT22;55276;53.260;50.222;2022-12-13T06:18:43;-3268.40;62.40
68358;DHT22;55276;53.260;50.222;2022-12-13T06:21:09;-3268.50;62.40
68358;DHT22;55276;53.260;50.222;2022-12-13T06:23:35;-3268.50;62.20
68358;DHT22;55276;53.260;50.222;2022-12-13T06:26:05;-3268.50;62.20
68358;DHT22;55276;53.260;50.222;2022-12-13T06:28:32;-3268.50;62.20
68358;DHT22;55276;53.260;50.222;2022-12-13T06:31:00;-3268.60;62.10
68358;DHT22;55276;53.260;50.222;2022-12-13T06:33:26;-3268.60;61.60
68358;DHT22;55276;53.260;50.222;2022-12-13T06:35:56;-3268.60;61.60
68358;DHT22;55276;53.260;50.222;2022-12-13T06:38:23;-3268.60;61.80
68358;DHT22;55276;53.260;50.222;2022-12-13T06:41:07;-3268.70;61.70
68358;DHT22;55276;53.260;50.222;2022-12-13T06:43:34;-3268.80;61.50
68358;DHT22;55276;53.260;50.222;2022-12-13T06:46:02;-3268.90;61.30
68358;DHT22;55276;53.260;50.222;2022-12-13T06:48:29;-3268.90;61.10
68358;DHT22;55276;53.260;50.222;2022-12-13T06:50:59;-3269.00;61.20
68358;DHT22;55276;53.260;50.222;2022-12-13T06:53:26;-3269.10;61.00
68358;DHT22;55276;53.260;50.222;2022-12-13T06:55:52;-3269.10;60.90
68358;DHT22;55276;53.260;50.222;2022-12-13T06:58:18;-3269.20;60.70
68358;DHT22;55276;53.260;50.222;2022-12-13T07:00:44;-3269.40;60.40
68358;DHT22;55276;53.260;50.222;2022-12-13T07:03:11;-3269.40;60.30
68358;DHT22;55276;53.260;50.222;2022-12-13T07:05:37;-3269.50;60.10
68358;DHT22;55276;53.260;50.222;2022-12-13T07:08:04;-3269.60;60.00
68358;DHT22;55276;53.260;50.222;2022-12-13T07:10:30;-3269.70;59.80
68358;DHT22;55276;53.260;50.222;2022-12-13T07:12:57;-3269.70;59.70
68358;DHT22;55276;53.260;50.222;2022-12-13T07:15:26;-3269.80;59.50
68358;DHT22;55276;53.260;50.222;2022-12-13T07:17:52;-3269.80;59.30
68358;DHT22;55276;53.260;50.222;2022-12-13T07:20:22;-3269.70;59.30
68358;DHT22;55276;53.260;50.222;2022-12-13T07:22:48;-3269.90;59.30
68358;DHT22;55276;53.260;50.222;2022-12-13T07:25:18;-3270.00;59.20
68358;DHT22;55276;53.260;50.222;2022-12-13T07:27:46;-3270.10;59.10
68358;DHT22;55276;53.260;50.222;2022-12-13T07:30:15;-3270.10;59.00
68358;DHT22;55276;53.260;50.222;2022-12-13T07:32:42;-3270.20;58.70
68358;DHT22;55276;53.260;50.222;2022-12-13T07:35:11;-3270.20;58.60
68358;DHT22;55276;53.260;50.222;2022-12-13T07:37:42;-3270.10;58.30
68358;DHT22;55276;53.260;50.222;2022-12-13T07:40:08;-3270.20;58.70
68358;DHT22;55276;53.260;50.222;2022-12-13T07:42:35;-3270.20;58.70
68358;DHT22;55276;53.260;50.222;2022-12-13T07:45:01;-3270.30;58.60
68358;DHT22;55276;53.260;50.222;2022-12-13T07:47:31;-3270.40;58.50
68358;DHT22;55276;53.260;50.222;2022-12-13T07:49:58;-3270.50;58.50
68358;DHT22;55276;53.260;50.222;2022-12-13T07:52:24;-3270.40;58.20
68358;DHT22;55276;53.260;50.222;2022-12-13T07:54:53;-3270.40;58.40
68358;DHT22;55276;53.260;50.222;2022-12-13T07:57:22;-3270.40;58.40
68358;DHT22;55276;53.260;50.222;2022-12-13T07:59:50;-3270.50;58.50
68358;DHT22;55276;53.260;50.222;2022-12-13T08:02:16;-3270.50;58.30
68358;DHT22;55276;53.260;50.222;2022-12-13T08:04:42;-3270.60;58.30
68358;DHT22;55276;53.260;50.222;2022-12-13T08:07:09;-3270.60;58.10
68358;DHT22;55276;53.260;50.222;2022-12-13T08:09:35;-3270.60;58.10
68358;DHT22;55276;53.260;50.222;2022-12-13T08:12:03;-3270.70;58.00
68358;DHT22;55276;53.260;50.222;2022-12-13T08:14:44;-3270.60;57.70
68358;DHT22;55276;53.260;50.222;2022-12-13T08:17:10;-3270.60;57.70
68358;DHT22;55276;53.260;50.222;2022-12-13T08:19:37;-3270.60;57.80
68358;DHT22;55276;53.260;50.222;2022-12-13T08:22:04;-3270.70;58.00
68358;DHT22;55276;53.260;50.222;2022-12-13T08:24:30;-3270.70;57.80
68358;DHT22;55276;53.260;50.222;2022-12-13T08:26:58;-3270.70;57.70
68358;DHT22;55276;53.260;50.222;2022-12-13T08:29:32;-3270.80;57.70
68358;DHT22;55276;53.260;50.222;2022-12-13T08:32:00;-3270.90;57.70
68358;DHT22;55276;53.260;50.222;2022-12-13T08:34:26;-3270.90;57.70
68358;DHT22;55276;53.260;50.222;2022-12-13T08:36:56;-3271.10;57.60
68358;DHT22;55276;53.260;50.222;2022-12-13T08:39:26;-3271.20;57.30
68358;DHT22;55276;53.260;50.222;2022-12-13T08:41:52;-3271.30;57.20
68358;DHT22;55276;53.260;50.222;2022-12-13T08:44:21;-3271.40;57.00
68358;DHT22;55276;53.260;50.222;2022-12-13T08:46:47;-3271.40;56.70
68358;DHT22;55276;53.260;50.222;2022-12-13T08:49:13;-3271.50;56.80
68358;DHT22;55276;53.260;50.222;2022-12-13T08:51:40;-3271.60;56.70
68358;DHT22;55276;53.260;50.222;2022-12-13T08:54:06;-3271.70;56.60
68358;DHT22;55276;53.260;50.222;2022-12-13T08:56:33;-3271.80;56.30
68358;DHT22;55276;53.260;50.222;2022-12-13T08:59:05;-3271.80;56.30
68358;DHT22;55276;53.260;50.222;2022-12-13T09:01:32;-3271.80;56.30
68358;DHT22;55276;53.260;50.222;2022-12-13T09:03:58;-3271.80;56.20
68358;DHT22;55276;53.260;50.222;2022-12-13T09:06:24;-3271.80;55.50
68358;DHT22;55276;53.260;50.222;2022-12-13T09:08:52;-3271.80;55.50
68358;DHT22;55276;53.260;50.222;2022-12-13T09:11:19;-3271.90;54.90
68358;DHT22;55276;53.260;50.222;2022-12-13T09:13:46;-3271.80;54.30
68358;DHT22;55276;53.260;50.222;2022-12-13T09:16:16;-3271.80;54.70
68358;DHT22;55276;53.260;50.222;2022-12-13T09:18:45;-3271.90;54.80
68358;DHT22;55276;53.260;50.222;2022-12-13T09:21:13;-3271.90;54.80
68358;DHT22;55276;53.260;50.222;2022-12-13T09:23:40;-3271.90;54.90
68358;DHT22;55276;53.260;50.222;2022-12-13T09:26:07;-3271.80;55.00
68358;DHT22;55276;53.260;50.222;2022-12-13T09:28:36;-3271.70;55.30
68358;DHT22;55276;53.260;50.222;2022-12-13T09:31:11;-3271.70;55.40
68358;DHT22;55276;53.260;50.222;2022-12-13T09:33:38;-3271.70;55.30
68358;DHT22;55276;53.260;50.222;2022-12-13T09:36:09;-3271.70;55.50
68358;DHT22;55276;53.260;50.222;2022-12-13T09:38:36;-3271.70;55.60
68358;DHT22;55276;53.260;50.222;2022-12-13T09:41:17;-3271.80;55.50
68358;DHT22;55276;53.260;50.222;2022-12-13T09:43:52;-3271.70;55.40
68358;DHT22;55276;53.260;50.222;2022-12-13T09:46:28;-3271.70;55.40
68358;DHT22;55276;53.260;50.222;2022-12-13T09:48:56;-3271.60;55.50
68358;DHT22;55276;53.260;50.222;2022-12-13T09:51:24;-3271.70;55.60
68358;DHT22;55276;53.260;50.222;2022-12-13T09:53:53;-3271.70;55.40
68358;DHT22;55276;53.260;50.222;2022-12-13T09:56:21;-3271.70;55.30
68358;DHT22;55276;53.260;50.222;2022-12-13T09:58:53;-3271.70;55.20
68358;DHT22;55276;53.260;50.222;2022-12-13T10:01:21;-3271.70;55.10
68358;DHT22;55276;53.260;50.222;2022-12-13T10:03:53;-3271.70;55.20
68358;DHT22;55276;53.260;50.222;2022-12-13T10:06:23;-3271.70;55.30
68358;DHT22;55276;53.260;50.222;2022-12-13T10:08:55;-3271.70;55.20
68358;DHT22;55276;53.260;50.222;2022-12-13T10:11:22;-3271.70;55.40
68358;DHT22;55276;53.260;50.222;2022-12-13T10:13:57;-3271.80;55.40
68358;DHT22;55276;53.260;50.222;2022-12-13T10:21:46;-3271.90;55.40
68358;DHT22;55276;53.260;50.222;2022-12-13T10:24:23;-3271.80;55.20
68358;DHT22;55276;53.260;50.222;2022-12-13T10:27:11;-3271.80;55.10
68358;DHT22;55276;53.260;50.222;2022-12-13T10:32:56;-3271.80;55.40
68358;DHT22;55276;53.260;50.222;2022-12-13T10:37:52;-3271.80;55.40
68358;DHT22;55276;53.260;50.222;2022-12-13T10:40:33;-3271.90;55.40
68358;DHT22;55276;53.260;50.222;2022-12-13T10:45:34;-3271.90;55.30
68358;DHT22;55276;53.260;50.222;2022-12-13T10:48:01;-3271.90;55.20
68358;DHT22;55276;53.260;50.222;2022-12-13T10:50:28;-3272.00;55.20
68358;DHT22;55276;53.260;50.222;2022-12-13T10:52:57;-3272.00;55.20
68358;DHT22;55276;53.260;50.222;2022-12-13T10:55:26;-3272.00;55.10
68358;DHT22;55276;53.260;50.222;2022-12-13T10:57:56;-3272.00;55.10
68358;DHT22;55276;53.260;50.222;2022-12-13T11:00:39;-3272.10;55.10
68358;DHT22;55276;53.260;50.222;2022-12-13T11:03:08;-3272.00;54.80
68358;DHT22;55276;53.260;50.222;2022-12-13T11:05:35;-3272.00;54.90
68358;DHT22;55276;53.260;50.222;2022-12-13T11:08:31;-3272.00;54.90
68358;DHT22;55276;53.260;50.222;2022-12-13T11:11:03;-3271.90;55.00
68358;DHT22;55276;53.260;50.222;2022-12-13T11:13:43;-3271.90;54.90
68358;DHT22;55276;53.260;50.222;2022-12-13T11:16:31;-3272.00;54.90
68358;DHT22;55276;53.260;50.222;2022-12-13T11:19:04;-3272.00;55.00
68358;DHT22;55276;53.260;50.222;2022-12-13T11:21:34;-3272.10;55.00
68358;DHT22;55276;53.260;50.222;2022-12-13T11:24:04;-3272.10;54.80
68358;DHT22;55276;53.260;50.222;2022-12-13T11:26:34;-3272.10;54.80
68358;DHT22;55276;53.260;50.222;2022-12-13T11:29:21;-3272.10;54.90
68358;DHT22;55276;53.260;50.222;2022-12-13T11:32:02;-3272.20;54.90
68358;DHT22;55276;53.260;50.222;2022-12-13T11:34:51;-3272.10;54.80
68358;DHT22;55276;53.260;50.222;2022-12-13T11:37:47;-3272.10;54.90
68358;DHT22;55276;53.260;50.222;2022-12-13T11:40:28;-3272.10;54.90
68358;DHT22;55276;53.260;50.222;2022-12-13T11:43:01;-3272.10;54.90
68358;DHT22;55276;53.260;50.222;2022-12-13T11:45:44;-3272.20;54.80
68358;DHT22;55276;53.260;50.222;2022-12-13T11:48:19;-3272.20;54.80
68358;DHT22;55276;53.260;50.222;2022-12-13T11:50:49;-3272.20;54.90
68358;DHT22;55276;53.260;50.222;2022-12-13T11:56:32;-3272.10;55.00
68358;DHT22;55276;53.260;50.222;2022-12-13T11:59:36;-3272.20;55.10
68358;DHT22;55276;53.260;50.222;2022-12-13T12:02:34;-3272.20;55.30
68358;DHT22;55276;53.260;50.222;2022-12-13T12:05:26;-3272.20;55.20
68358;DHT22;55276;53.260;50.222;2022-12-13T12:08:05;-3272.20;55.30
68358;DHT22;55276;53.260;50.222;2022-12-13T12:10:42;-3272.10;55.40
68358;DHT22;55276;53.260;50.222;2022-12-13T12:13:12;-3272.10;55.50
68358;DHT22;55276;53.260;50.222;2022-12-13T12:16:07;-3272.10;55.60
68358;DHT22;55276;53.260;50.222;2022-12-13T12:18:30;-3272.10;55.80
68358;DHT22;55276;53.260;50.222;2022-12-13T12:21:23;-3272.10;55.90
68358;DHT22;55276;53.260;50.222;2022-12-13T12:34:59;-3271.70;56.90
68358;DHT22;55276;53.260;50.222;2022-12-13T12:37:38;-3271.60;57.50
68358;DHT22;55276;53.260;50.222;2022-12-13T12:48:49;-3271.20;59.20
68358;DHT22;55276;53.260;50.222;2022-12-13T12:51:26;-3271.10;59.60
68358;DHT22;55276;53.260;50.222;2022-12-13T12:54:17;-3271.00;59.80
68358;DHT22;55276;53.260;50.222;2022-12-13T13:02:36;-3270.70;60.80
68358;DHT22;55276;53.260;50.222;2022-12-13T13:05:13;-3270.70;61.10
68358;DHT22;55276;53.260;50.222;2022-12-13T13:07:48;-3270.60;61.40
68358;DHT22;55276;53.260;50.222;2022-12-13T13:10:18;-3270.60;61.80
68358;DHT22;55276;53.260;50.222;2022-12-13T13:12:45;-3270.50;61.90
68358;DHT22;55276;53.260;50.222;2022-12-13T13:17:56;-3270.60;62.10
68358;DHT22;55276;53.260;50.222;2022-12-13T13:20:26;-3270.60;62.10
68358;DHT22;55276;53.260;50.222;2022-12-13T13:22:56;-3270.60;62.10
68358;DHT22;55276;53.260;50.222;2022-12-13T13:25:31;-3270.60;62.00
68358;DHT22;55276;53.260;50.222;2022-12-13T13:28:03;-3270.70;62.10
68358;DHT22;55276;53.260;50.222;2022-12-13T13:30:31;-3270.70;62.10
68358;DHT22;55276;53.260;50.222;2022-12-13T13:32:58;-3270.60;62.10
68358;DHT22;55276;53.260;50.222;2022-12-13T13:40:50;-3270.60;62.10
68358;DHT22;55276;53.260;50.222;2022-12-13T13:43:17;-3270.60;62.00
68358;DHT22;55276;53.260;50.222;2022-12-13T13:45:56;-3270.60;62.10
68358;DHT22;55276;53.260;50.222;2022-12-13T13:48:41;-3270.40;62.30
68358;DHT22;55276;53.260;50.222;2022-12-13T13:57:02;-3270.40;62.70
68358;DHT22;55276;53.260;50.222;2022-12-13T14:14:37;-3270.40;62.30
68358;DHT22;55276;53.260;50.222;2022-12-13T14:17:44;-3270.40;62.20
68358;DHT22;55276;53.260;50.222;2022-12-13T14:29:46;-3270.40;61.90
68358;DHT22;55276;53.260;50.222;2022-12-13T14:41:00;-3270.30;61.80
68358;DHT22;55276;53.260;50.222;2022-12-13T14:48:16;-3270.20;61.60
68358;DHT22;55276;53.260;50.222;2022-12-13T14:50:56;-3270.20;61.70
68358;DHT22;55276;53.260;50.222;2022-12-13T14:53:28;-3270.20;61.80
68358;DHT22;55276;53.260;50.222;2022-12-13T14:56:16;-3270.20;61.90
68358;DHT22;55276;53.260;50.222;2022-12-13T14:58:58;-3270.20;61.90
68358;DHT22;55276;53.260;50.222;2022-12-13T15:01:31;-3270.20;61.90
68358;DHT22;55276;53.260;50.222;2022-12-13T15:04:31;-3270.20;61.90
68358;DHT22;55276;53.260;50.222;2022-12-13T15:07:38;-3270.20;61.90
68358;DHT22;55276;53.260;50.222;2022-12-13T15:10:42;-3270.30;61.70
68358;DHT22;55276;53.260;50.222;2022-12-13T15:13:47;-3270.30;61.60
68358;DHT22;55276;53.260;50.222;2022-12-13T15:16:53;-3270.20;61.40
68358;DHT22;55276;53.260;50.222;2022-12-13T15:19:27;-3270.20;61.40
68358;DHT22;55276;53.260;50.222;2022-12-13T15:22:00;-3270.20;61.40
68358;DHT22;55276;53.260;50.222;2022-12-13T15:24:39;-3270.20;61.30
68358;DHT22;55276;53.260;50.222;2022-12-13T15:31:38;-3270.20;61.40
68358;DHT22;55276;53.260;50.222;2022-12-13T15:42:10;-3270.20;61.20
68358;DHT22;55276;53.260;50.222;2022-12-13T15:49:06;-3270.20;61.10
68358;DHT22;55276;53.260;50.222;2022-12-13T15:57:54;-3270.20;60.80
68358;DHT22;55276;53.260;50.222;2022-12-13T16:00:23;-3270.20;60.80
68358;DHT22;55276;53.260;50.222;2022-12-13T16:03:18;-3270.10;60.90
68358;DHT22;55276;53.260;50.222;2022-12-13T16:05:59;-3270.10;61.00
68358;DHT22;55276;53.260;50.222;2022-12-13T16:16:31;-3270.10;61.00
68358;DHT22;55276;53.260;50.222;2022-12-13T16:19:17;-3270.00;60.90
68358;DHT22;55276;53.260;50.222;2022-12-13T16:21:55;-3270.00;61.10
68358;DHT22;55276;53.260;50.222;2022-12-13T16:24:30;-3269.90;61.20
68358;DHT22;55276;53.260;50.222;2022-12-13T16:28:28;-3269.90;61.20
68358;DHT22;55276;53.260;50.222;2022-12-13T16:36:04;-3269.90;61.30
68358;DHT22;55276;53.260;50.222;2022-12-13T16:38:46;-3269.80;61.30
68358;DHT22;55276;53.260;50.222;2022-12-13T16:45:37;-3269.80;61.40
68358;DHT22;55276;53.260;50.222;2022-12-13T16:57:21;-3269.70;61.30
68358;DHT22;55276;53.260;50.222;2022-12-13T17:00:20;-3269.70;61.30
68358;DHT22;55276;53.260;50.222;2022-12-13T17:51:26;-3269.90;60.70
68358;DHT22;55276;53.260;50.222;2022-12-13T17:58:02;-3269.90;60.90
68358;DHT22;55276;53.260;50.222;2022-12-13T18:00:32;-3270.00;60.70
68358;DHT22;55276;53.260;50.222;2022-12-13T18:02:59;-3270.00;60.70
68358;DHT22;55276;53.260;50.222;2022-12-13T18:05:28;-3270.10;60.60
68358;DHT22;55276;53.260;50.222;2022-12-13T18:07:59;-3270.00;60.70
68358;DHT22;55276;53.260;50.222;2022-12-13T18:10:26;-3269.90;60.80
68358;DHT22;55276;53.260;50.222;2022-12-13T18:12:52;-3269.90;60.90
68358;DHT22;55276;53.260;50.222;2022-12-13T18:15:22;-3269.90;61.00
68358;DHT22;55276;53.260;50.222;2022-12-13T18:17:50;-3269.90;61.00
68358;DHT22;55276;53.260;50.222;2022-12-13T18:20:17;-3269.90;61.10
68358;DHT22;55276;53.260;50.222;2022-12-13T18:22:49;-3269.90;61.10
68358;DHT22;55276;53.260;50.222;2022-12-13T18:25:25;-3269.80;61.10
68358;DHT22;55276;53.260;50.222;2022-12-13T18:29:06;-3269.80;61.20
68358;DHT22;55276;53.260;50.222;2022-12-13T18:32:05;-3269.80;61.20
68358;DHT22;55276;53.260;50.222;2022-12-13T18:38:14;-3269.80;61.20
68358;DHT22;55276;53.260;50.222;2022-12-13T18:40:46;-3269.70;61.20
68358;DHT22;55276;53.260;50.222;2022-12-13T18:43:16;-3269.70;61.20
68358;DHT22;55276;53.260;50.222;2022-12-13T18:46:17;-3269.70;61.30
68358;DHT22;55276;53.260;50.222;2022-12-13T18:49:00;-3269.70;61.30
68358;DHT22;55276;53.260;50.222;2022-12-13T18:51:33;-3269.70;61.40
68358;DHT22;55276;53.260;50.222;2022-12-13T18:54:05;-3269.70;61.50